sensor_id;sensor_type;location;lat;lon;timestamp;P1;durP1;ratioP1;P2;durP2;ratioP2
7575;SDS011;3829;50.798;4.358;2023-04-01T00:00:28;4.77;;;2.10;;
7575;SDS011;3829;50.798;4.358;2023-04-01T00:02:54;7.80;;;2.60;;
7575;SDS011;3829;50.798;4.358;2023-04-01T00:05:20;15.97;;;3.20;;
7575;SDS011;3829;50.798;4.358;2023-04-01T00:07:46;11.20;;;2.40;;
7575;SDS011;3829;50.798;4.358;2023-04-01T00:10:12;8.37;;;2.60;;
7575;SDS011;3829;50.798;4.358;2023-04-01T00:12:40;4.37;;;1.93;;
7575;SDS011;3829;50.798;4.358;2023-04-01T00:15:07;7.07;;;2.03;;
7575;SDS011;3829;50.798;4.358;2023-04-01T00:17:34;8.20;;;2.17;;
7575;SDS011;3829;50.798;4.358;2023-04-01T00:19:59;9.30;;;2.33;;
7575;SDS011;3829;50.798;4.358;2023-04-01T00:22:26;4.20;;;2.20;;
7575;SDS011;3829;50.798;4.358;2023-04-01T00:24:52;8.63;;;2.30;;
7575;SDS011;3829;50.798;4.358;2023-04-01T00:27:18;9.47;;;2.10;;
7575;SDS011;3829;50.798;4.358;2023-04-01T00:29:45;6.00;;;1.80;;
7575;SDS011;3829;50.798;4.358;2023-04-01T00:32:13;7.40;;;2.30;;
7575;SDS011;3829;50.798;4.358;2023-04-01T00:34:40;7.77;;;1.93;;
7575;SDS011;3829;50.798;4.358;2023-04-01T00:37:06;11.07;;;1.90;;
7575;SDS011;3829;50.798;4.358;2023-04-01T00:39:33;5.40;;;1.90;;
7575;SDS011;3829;50.798;4.358;2023-04-01T00:42:00;7.80;;;2.27;;
7575;SDS011;3829;50.798;4.358;2023-04-01T00:44:28;8.43;;;2.63;;
7575;SDS011;3829;50.798;4.358;2023-04-01T00:46:57;5.03;;;1.90;;
7575;SDS011;3829;50.798;4.358;2023-04-01T00:49:23;7.57;;;2.37;;
7575;SDS011;3829;50.798;4.358;2023-04-01T00:51:54;6.13;;;2.50;;
7575;SDS011;3829;50.798;4.358;2023-04-01T00:54:22;4.40;;;2.57;;
7575;SDS011;3829;50.798;4.358;2023-04-01T00:57:00;7.80;;;2.60;;
7575;SDS011;3829;50.798;4.358;2023-04-01T00:59:34;5.90;;;2.53;;
7575;SDS011;3829;50.798;4.358;2023-04-01T01:02:08;7.23;;;2.70;;
7575;SDS011;3829;50.798;4.358;2023-04-01T01:04:36;3.67;;;2.50;;
7575;SDS011;3829;50.798;4.358;2023-04-01T01:07:10;5.47;;;2.63;;
7575;SDS011;3829;50.798;4.358;2023-04-01T01:09:45;3.70;;;2.20;;
7575;SDS011;3829;50.798;4.358;2023-04-01T01:12:24;6.53;;;2.53;;
7575;SDS011;3829;50.798;4.358;2023-04-01T01:20:26;8.20;;;2.67;;
7575;SDS011;3829;50.798;4.358;2023-04-01T01:23:10;8.20;;;2.60;;
7575;SDS011;3829;50.798;4.358;2023-04-01T01:37:22;6.30;;;2.60;;
7575;SDS011;3829;50.798;4.358;2023-04-01T01:39:52;4.17;;;2.50;;
7575;SDS011;3829;50.798;4.358;2023-04-01T01:42:21;7.73;;;2.73;;
7575;SDS011;3829;50.798;4.358;2023-04-01T01:44:50;4.70;;;2.20;;
7575;SDS011;3829;50.798;4.358;2023-04-01T01:47:18;5.77;;;3.00;;
7575;SDS011;3829;50.798;4.358;2023-04-01T01:49:45;3.27;;;2.50;;
7575;SDS011;3829;50.798;4.358;2023-04-01T01:52:12;6.93;;;2.50;;
7575;SDS011;3829;50.798;4.358;2023-04-01T01:54:51;3.83;;;2.57;;
7575;SDS011;3829;50.798;4.358;2023-04-01T01:57:19;5.07;;;3.00;;
7575;SDS011;3829;50.798;4.358;2023-04-01T01:59:49;5.10;;;2.90;;
7575;SDS011;3829;50.798;4.358;2023-04-01T02:02:17;7.10;;;3.30;;
7575;SDS011;3829;50.798;4.358;2023-04-01T02:04:43;4.37;;;3.20;;
7575;SDS011;3829;50.798;4.358;2023-04-01T02:07:12;8.27;;;4.03;;
7575;SDS011;3829;50.798;4.358;2023-04-01T02:09:43;12.13;;;3.73;;
7575;SDS011;3829;50.798;4.358;2023-04-01T02:12:09;6.33;;;3.47;;
7575;SDS011;3829;50.798;4.358;2023-04-01T02:14:43;6.50;;;3.70;;
7575;SDS011;3829;50.798;4.358;2023-04-01T02:17:11;4.67;;;3.47;;
7575;SDS011;3829;50.798;4.358;2023-04-01T02:19:46;6.83;;;3.67;;
7575;SDS011;3829;50.798;4.358;2023-04-01T02:22:25;6.93;;;4.03;;
7575;SDS011;3829;50.798;4.358;2023-04-01T02:24:54;4.60;;;3.60;;
7575;SDS011;3829;50.798;4.358;2023-04-01T02:27:23;8.43;;;3.70;;
7575;SDS011;3829;50.798;4.358;2023-04-01T02:29:50;8.43;;;4.47;;
7575;SDS011;3829;50.798;4.358;2023-04-01T02:32:16;14.03;;;4.57;;
7575;SDS011;3829;50.798;4.358;2023-04-01T02:34:44;6.00;;;3.70;;
7575;SDS011;3829;50.798;4.358;2023-04-01T02:37:11;7.90;;;4.37;;
7575;SDS011;3829;50.798;4.358;2023-04-01T02:39:37;9.00;;;3.80;;
7575;SDS011;3829;50.798;4.358;2023-04-01T02:42:03;10.83;;;4.10;;
7575;SDS011;3829;50.798;4.358;2023-04-01T02:44:28;8.33;;;4.50;;
7575;SDS011;3829;50.798;4.358;2023-04-01T02:46:54;9.37;;;4.97;;
7575;SDS011;3829;50.798;4.358;2023-04-01T02:49:19;10.40;;;5.17;;
7575;SDS011;3829;50.798;4.358;2023-04-01T02:51:45;8.47;;;4.80;;
7575;SDS011;3829;50.798;4.358;2023-04-01T02:54:11;9.80;;;4.70;;
7575;SDS011;3829;50.798;4.358;2023-04-01T02:56:36;12.50;;;4.80;;
7575;SDS011;3829;50.798;4.358;2023-04-01T02:59:02;9.20;;;4.77;;
7575;SDS011;3829;50.798;4.358;2023-04-01T03:01:28;12.43;;;5.50;;
7575;SDS011;3829;50.798;4.358;2023-04-01T03:03:54;15.90;;;5.10;;
7575;SDS011;3829;50.798;4.358;2023-04-01T03:06:19;12.27;;;5.27;;
7575;SDS011;3829;50.798;4.358;2023-04-01T03:08:45;11.33;;;4.97;;
7575;SDS011;3829;50.798;4.358;2023-04-01T03:11:11;10.93;;;5.10;;
7575;SDS011;3829;50.798;4.358;2023-04-01T03:13:37;10.17;;;5.30;;
7575;SDS011;3829;50.798;4.358;2023-04-01T03:16:03;16.60;;;5.77;;
7575;SDS011;3829;50.798;4.358;2023-04-01T03:18:28;10.83;;;5.53;;
7575;SDS011;3829;50.798;4.358;2023-04-01T03:20:54;14.90;;;6.03;;
7575;SDS011;3829;50.798;4.358;2023-04-01T03:23:20;10.83;;;5.50;;
7575;SDS011;3829;50.798;4.358;2023-04-01T03:25:46;13.17;;;6.20;;
7575;SDS011;3829;50.798;4.358;2023-04-01T03:28:12;13.03;;;7.17;;
7575;SDS011;3829;50.798;4.358;2023-04-01T03:30:38;11.67;;;6.57;;
7575;SDS011;3829;50.798;4.358;2023-04-01T03:33:03;13.53;;;6.43;;
7575;SDS011;3829;50.798;4.358;2023-04-01T03:35:29;12.00;;;6.50;;
7575;SDS011;3829;50.798;4.358;2023-04-01T03:37:55;17.07;;;6.57;;
7575;SDS011;3829;50.798;4.358;2023-04-01T03:40:21;14.13;;;6.70;;
7575;SDS011;3829;50.798;4.358;2023-04-01T03:42:47;14.97;;;7.07;;
7575;SDS011;3829;50.798;4.358;2023-04-01T03:45:12;12.97;;;6.17;;
7575;SDS011;3829;50.798;4.358;2023-04-01T03:47:38;13.20;;;6.33;;
7575;SDS011;3829;50.798;4.358;2023-04-01T03:50:05;17.33;;;6.53;;
7575;SDS011;3829;50.798;4.358;2023-04-01T03:52:32;23.03;;;7.63;;
7575;SDS011;3829;50.798;4.358;2023-04-01T03:54:58;19.20;;;7.17;;
7575;SDS011;3829;50.798;4.358;2023-04-01T03:57:23;16.93;;;6.40;;
7575;SDS011;3829;50.798;4.358;2023-04-01T03:59:49;11.70;;;6.43;;
7575;SDS011;3829;50.798;4.358;2023-04-01T04:02:15;13.90;;;5.93;;
7575;SDS011;3829;50.798;4.358;2023-04-01T04:04:41;13.90;;;6.10;;
7575;SDS011;3829;50.798;4.358;2023-04-01T04:07:06;14.63;;;5.80;;
7575;SDS011;3829;50.798;4.358;2023-04-01T04:09:32;15.90;;;6.27;;
7575;SDS011;3829;50.798;4.358;2023-04-01T04:11:58;11.83;;;5.17;;
7575;SDS011;3829;50.798;4.358;2023-04-01T04:14:25;16.50;;;5.73;;
7575;SDS011;3829;50.798;4.358;2023-04-01T04:16:50;14.73;;;6.17;;
7575;SDS011;3829;50.798;4.358;2023-04-01T04:19:16;9.57;;;5.73;;
7575;SDS011;3829;50.798;4.358;2023-04-01T04:21:42;16.70;;;6.30;;
7575;SDS011;3829;50.798;4.358;2023-04-01T04:24:08;16.60;;;6.77;;
7575;SDS011;3829;50.798;4.358;2023-04-01T04:26:33;16.40;;;6.53;;
7575;SDS011;3829;50.798;4.358;2023-04-01T04:29:00;17.23;;;6.70;;
7575;SDS011;3829;50.798;4.358;2023-04-01T04:31:26;17.33;;;6.97;;
7575;SDS011;3829;50.798;4.358;2023-04-01T04:33:52;12.93;;;6.37;;
7575;SDS011;3829;50.798;4.358;2023-04-01T04:36:18;12.10;;;6.90;;
7575;SDS011;3829;50.798;4.358;2023-04-01T04:38:44;15.90;;;7.97;;
7575;SDS011;3829;50.798;4.358;2023-04-01T04:41:10;12.43;;;6.80;;
7575;SDS011;3829;50.798;4.358;2023-04-01T04:43:40;15.33;;;6.53;;
7575;SDS011;3829;50.798;4.358;2023-04-01T04:46:07;15.50;;;6.73;;
7575;SDS011;3829;50.798;4.358;2023-04-01T04:48:33;12.57;;;6.43;;
7575;SDS011;3829;50.798;4.358;2023-04-01T04:50:59;11.57;;;7.00;;
7575;SDS011;3829;50.798;4.358;2023-04-01T04:53:25;10.80;;;6.33;;
7575;SDS011;3829;50.798;4.358;2023-04-01T04:55:51;12.60;;;7.10;;
7575;SDS011;3829;50.798;4.358;2023-04-01T04:58:17;13.13;;;6.60;;
7575;SDS011;3829;50.798;4.358;2023-04-01T05:00:43;12.50;;;6.40;;
7575;SDS011;3829;50.798;4.358;2023-04-01T05:03:10;9.10;;;5.63;;
7575;SDS011;3829;50.798;4.358;2023-04-01T05:05:35;12.57;;;5.13;;
7575;SDS011;3829;50.798;4.358;2023-04-01T05:08:01;9.43;;;5.10;;
7575;SDS011;3829;50.798;4.358;2023-04-01T05:10:27;11.63;;;5.30;;
7575;SDS011;3829;50.798;4.358;2023-04-01T05:12:53;7.47;;;4.67;;
7575;SDS011;3829;50.798;4.358;2023-04-01T05:15:19;6.90;;;4.00;;
7575;SDS011;3829;50.798;4.358;2023-04-01T05:17:45;8.20;;;4.13;;
7575;SDS011;3829;50.798;4.358;2023-04-01T05:20:11;8.30;;;3.83;;
7575;SDS011;3829;50.798;4.358;2023-04-01T05:22:38;7.70;;;3.83;;
7575;SDS011;3829;50.798;4.358;2023-04-01T05:25:03;10.73;;;4.63;;
7575;SDS011;3829;50.798;4.358;2023-04-01T05:27:30;8.30;;;4.27;;
7575;SDS011;3829;50.798;4.358;2023-04-01T05:29:56;11.13;;;4.70;;
7575;SDS011;3829;50.798;4.358;2023-04-01T05:32:22;9.90;;;5.13;;
7575;SDS011;3829;50.798;4.358;2023-04-01T05:34:50;10.90;;;5.10;;
7575;SDS011;3829;50.798;4.358;2023-04-01T05:37:16;14.93;;;5.60;;
7575;SDS011;3829;50.798;4.358;2023-04-01T05:39:42;10.03;;;5.30;;
7575;SDS011;3829;50.798;4.358;2023-04-01T05:42:08;10.70;;;5.20;;
7575;SDS011;3829;50.798;4.358;2023-04-01T05:44:34;10.37;;;5.10;;
7575;SDS011;3829;50.798;4.358;2023-04-01T05:47:00;9.80;;;6.50;;
7575;SDS011;3829;50.798;4.358;2023-04-01T05:49:26;15.33;;;7.10;;
7575;SDS011;3829;50.798;4.358;2023-04-01T05:51:51;18.23;;;7.10;;
7575;SDS011;3829;50.798;4.358;2023-04-01T05:54:17;15.57;;;8.17;;
7575;SDS011;3829;50.798;4.358;2023-04-01T05:56:43;16.03;;;7.17;;
7575;SDS011;3829;50.798;4.358;2023-04-01T05:59:10;15.33;;;7.50;;
7575;SDS011;3829;50.798;4.358;2023-04-01T06:01:36;13.33;;;7.13;;
7575;SDS011;3829;50.798;4.358;2023-04-01T06:04:02;15.10;;;7.00;;
7575;SDS011;3829;50.798;4.358;2023-04-01T06:06:28;14.27;;;6.90;;
7575;SDS011;3829;50.798;4.358;2023-04-01T06:08:56;14.10;;;8.73;;
7575;SDS011;3829;50.798;4.358;2023-04-01T06:20:21;17.43;;;7.63;;
7575;SDS011;3829;50.798;4.358;2023-04-01T06:30:50;18.50;;;7.60;;
7575;SDS011;3829;50.798;4.358;2023-04-01T06:41:06;19.63;;;8.40;;
7575;SDS011;3829;50.798;4.358;2023-04-01T06:54:53;12.00;;;6.73;;
7575;SDS011;3829;50.798;4.358;2023-04-01T06:57:41;13.97;;;6.53;;
7575;SDS011;3829;50.798;4.358;2023-04-01T07:00:13;11.77;;;6.07;;
7575;SDS011;3829;50.798;4.358;2023-04-01T07:02:45;13.40;;;6.60;;
7575;SDS011;3829;50.798;4.358;2023-04-01T07:05:18;14.60;;;5.87;;
7575;SDS011;3829;50.798;4.358;2023-04-01T07:07:46;13.37;;;6.53;;
7575;SDS011;3829;50.798;4.358;2023-04-01T07:10:20;13.57;;;6.20;;
7575;SDS011;3829;50.798;4.358;2023-04-01T07:12:51;12.17;;;5.67;;
7575;SDS011;3829;50.798;4.358;2023-04-01T07:15:31;10.00;;;6.10;;
7575;SDS011;3829;50.798;4.358;2023-04-01T07:18:10;13.50;;;6.10;;
7575;SDS011;3829;50.798;4.358;2023-04-01T07:20:42;10.23;;;5.33;;
7575;SDS011;3829;50.798;4.358;2023-04-01T07:23:20;11.47;;;6.40;;
7575;SDS011;3829;50.798;4.358;2023-04-01T07:25:53;9.87;;;6.07;;
7575;SDS011;3829;50.798;4.358;2023-04-01T07:28:26;10.97;;;6.20;;
7575;SDS011;3829;50.798;4.358;2023-04-01T07:33:33;15.17;;;6.03;;
7575;SDS011;3829;50.798;4.358;2023-04-01T07:36:07;9.60;;;6.10;;
7575;SDS011;3829;50.798;4.358;2023-04-01T07:38:59;14.80;;;5.40;;
7575;SDS011;3829;50.798;4.358;2023-04-01T07:41:52;8.07;;;4.83;;
7575;SDS011;3829;50.798;4.358;2023-04-01T07:47:15;7.57;;;4.60;;
7575;SDS011;3829;50.798;4.358;2023-04-01T07:55:25;5.87;;;4.03;;
7575;SDS011;3829;50.798;4.358;2023-04-01T07:58:29;6.10;;;3.97;;
7575;SDS011;3829;50.798;4.358;2023-04-01T08:01:06;5.43;;;3.00;;
7575;SDS011;3829;50.798;4.358;2023-04-01T08:03:50;7.53;;;3.63;;
7575;SDS011;3829;50.798;4.358;2023-04-01T08:17:01;4.50;;;3.80;;
7575;SDS011;3829;50.798;4.358;2023-04-01T08:22:21;8.50;;;3.37;;
7575;SDS011;3829;50.798;4.358;2023-04-01T08:24:54;3.57;;;2.97;;
7575;SDS011;3829;50.798;4.358;2023-04-01T08:29:59;3.53;;;2.57;;
7575;SDS011;3829;50.798;4.358;2023-04-01T08:32:42;3.30;;;2.50;;
7575;SDS011;3829;50.798;4.358;2023-04-01T08:38:01;4.53;;;2.53;;
7575;SDS011;3829;50.798;4.358;2023-04-01T08:40:39;4.80;;;2.13;;
7575;SDS011;3829;50.798;4.358;2023-04-01T08:43:43;3.20;;;2.20;;
7575;SDS011;3829;50.798;4.358;2023-04-01T08:49:25;3.23;;;2.50;;
7575;SDS011;3829;50.798;4.358;2023-04-01T09:01:07;2.43;;;1.97;;
7575;SDS011;3829;50.798;4.358;2023-04-01T09:11:20;6.23;;;2.20;;
7575;SDS011;3829;50.798;4.358;2023-04-01T09:13:58;5.00;;;2.57;;
7575;SDS011;3829;50.798;4.358;2023-04-01T09:19:32;5.43;;;3.00;;
7575;SDS011;3829;50.798;4.358;2023-04-01T09:22:25;2.63;;;2.40;;
7575;SDS011;3829;50.798;4.358;2023-04-01T09:30:41;5.43;;;2.90;;
7575;SDS011;3829;50.798;4.358;2023-04-01T09:36:18;4.73;;;2.63;;
7575;SDS011;3829;50.798;4.358;2023-04-01T09:44:45;4.50;;;3.07;;
7575;SDS011;3829;50.798;4.358;2023-04-01T09:48:07;6.33;;;2.93;;
7575;SDS011;3829;50.798;4.358;2023-04-01T09:55:57;6.17;;;3.90;;
7575;SDS011;3829;50.798;4.358;2023-04-01T10:27:22;2.17;;;1.97;;
7575;SDS011;3829;50.798;4.358;2023-04-01T10:46:20;2.77;;;1.90;;
7575;SDS011;3829;50.798;4.358;2023-04-01T10:54:36;3.43;;;2.20;;
7575;SDS011;3829;50.798;4.358;2023-04-01T11:14:29;3.17;;;2.13;;
7575;SDS011;3829;50.798;4.358;2023-04-01T11:22:53;2.13;;;1.93;;
7575;SDS011;3829;50.798;4.358;2023-04-01T11:41:55;2.70;;;1.87;;
7575;SDS011;3829;50.798;4.358;2023-04-01T11:44:53;2.20;;;2.00;;
7575;SDS011;3829;50.798;4.358;2023-04-01T11:47:45;2.20;;;2.00;;
7575;SDS011;3829;50.798;4.358;2023-04-01T12:12:18;2.10;;;1.90;;
7575;SDS011;3829;50.798;4.358;2023-04-01T12:17:39;2.63;;;1.90;;
7575;SDS011;3829;50.798;4.358;2023-04-01T12:46:03;4.03;;;3.07;;
7575;SDS011;3829;50.798;4.358;2023-04-01T12:48:58;4.60;;;3.40;;
7575;SDS011;3829;50.798;4.358;2023-04-01T12:51:45;5.83;;;3.43;;
7575;SDS011;3829;50.798;4.358;2023-04-01T12:59:47;3.80;;;3.20;;
7575;SDS011;3829;50.798;4.358;2023-04-01T13:11:02;5.53;;;3.30;;
7575;SDS011;3829;50.798;4.358;2023-04-01T13:13:44;6.67;;;3.43;;
7575;SDS011;3829;50.798;4.358;2023-04-01T13:16:29;4.53;;;3.53;;
7575;SDS011;3829;50.798;4.358;2023-04-01T13:26:44;3.80;;;2.50;;
7575;SDS011;3829;50.798;4.358;2023-04-01T13:29:25;4.77;;;2.30;;
7575;SDS011;3829;50.798;4.358;2023-04-01T13:34:44;4.43;;;2.53;;
7575;SDS011;3829;50.798;4.358;2023-04-01T13:42:30;6.33;;;2.63;;
7575;SDS011;3829;50.798;4.358;2023-04-01T13:45:14;4.23;;;2.50;;
7575;SDS011;3829;50.798;4.358;2023-04-01T13:53:06;7.33;;;2.40;;
7575;SDS011;3829;50.798;4.358;2023-04-01T13:55:49;3.53;;;2.53;;
7575;SDS011;3829;50.798;4.358;2023-04-01T13:58:27;3.37;;;2.10;;
7575;SDS011;3829;50.798;4.358;2023-04-01T14:03:49;3.30;;;2.30;;
7575;SDS011;3829;50.798;4.358;2023-04-01T14:09:29;3.40;;;2.60;;
7575;SDS011;3829;50.798;4.358;2023-04-01T14:14:45;3.30;;;2.57;;
7575;SDS011;3829;50.798;4.358;2023-04-01T14:17:41;2.90;;;1.80;;
7575;SDS011;3829;50.798;4.358;2023-04-01T14:20:33;3.50;;;2.47;;
7575;SDS011;3829;50.798;4.358;2023-04-01T14:23:31;2.20;;;2.00;;
7575;SDS011;3829;50.798;4.358;2023-04-01T14:31:48;3.07;;;2.43;;
7575;SDS011;3829;50.798;4.358;2023-04-01T14:48:32;1.63;;;1.53;;
7575;SDS011;3829;50.798;4.358;2023-04-01T14:53:44;2.23;;;1.40;;
7575;SDS011;3829;50.798;4.358;2023-04-01T14:57:04;2.10;;;1.40;;
7575;SDS011;3829;50.798;4.358;2023-04-01T14:59:27;3.20;;;1.50;;
7575;SDS011;3829;50.798;4.358;2023-04-01T15:02:08;1.60;;;1.30;;
7575;SDS011;3829;50.798;4.358;2023-04-01T15:18:56;3.40;;;2.00;;
7575;SDS011;3829;50.798;4.358;2023-04-01T15:35:03;1.70;;;1.60;;
7575;SDS011;3829;50.798;4.358;2023-04-01T15:40:53;1.83;;;1.73;;
7575;SDS011;3829;50.798;4.358;2023-04-01T15:43:30;2.97;;;1.77;;
7575;SDS011;3829;50.798;4.358;2023-04-01T16:10:31;1.57;;;1.13;;
7575;SDS011;3829;50.798;4.358;2023-04-01T16:13:32;4.27;;;1.30;;
7575;SDS011;3829;50.798;4.358;2023-04-01T16:16:23;1.60;;;1.20;;
7575;SDS011;3829;50.798;4.358;2023-04-01T16:22:06;1.70;;;1.40;;
7575;SDS011;3829;50.798;4.358;2023-04-01T16:24:43;2.60;;;0.90;;
7575;SDS011;3829;50.798;4.358;2023-04-01T16:30:00;1.40;;;1.30;;
7575;SDS011;3829;50.798;4.358;2023-04-01T16:41:34;4.03;;;1.20;;
7575;SDS011;3829;50.798;4.358;2023-04-01T16:46:52;3.03;;;1.07;;
7575;SDS011;3829;50.798;4.358;2023-04-01T16:57:52;1.73;;;1.63;;
7575;SDS011;3829;50.798;4.358;2023-04-01T17:03:02;2.03;;;1.80;;
7575;SDS011;3829;50.798;4.358;2023-04-01T17:11:12;2.83;;;2.00;;
7575;SDS011;3829;50.798;4.358;2023-04-01T17:32:47;2.30;;;2.10;;
7575;SDS011;3829;50.798;4.358;2023-04-01T17:35:37;4.00;;;1.83;;
7575;SDS011;3829;50.798;4.358;2023-04-01T17:43:56;2.90;;;2.53;;
7575;SDS011;3829;50.798;4.358;2023-04-01T17:49:19;4.23;;;2.47;;
7575;SDS011;3829;50.798;4.358;2023-04-01T18:00:06;2.83;;;2.50;;
7575;SDS011;3829;50.798;4.358;2023-04-01T18:05:38;2.93;;;2.57;;
7575;SDS011;3829;50.798;4.358;2023-04-01T18:19:48;4.10;;;2.97;;
7575;SDS011;3829;50.798;4.358;2023-04-01T18:25:14;3.60;;;3.10;;
7575;SDS011;3829;50.798;4.358;2023-04-01T18:28:22;7.40;;;4.17;;
7575;SDS011;3829;50.798;4.358;2023-04-01T18:31:10;3.73;;;3.17;;
7575;SDS011;3829;50.798;4.358;2023-04-01T18:33:43;7.30;;;4.10;;
7575;SDS011;3829;50.798;4.358;2023-04-01T18:39:14;5.40;;;4.30;;
7575;SDS011;3829;50.798;4.358;2023-04-01T18:41:49;6.30;;;4.40;;
7575;SDS011;3829;50.798;4.358;2023-04-01T18:47:22;5.47;;;4.47;;
7575;SDS011;3829;50.798;4.358;2023-04-01T18:52:49;6.93;;;4.70;;
7575;SDS011;3829;50.798;4.358;2023-04-01T18:55:30;9.33;;;4.97;;
7575;SDS011;3829;50.798;4.358;2023-04-01T19:04:08;9.60;;;6.53;;
7575;SDS011;3829;50.798;4.358;2023-04-01T19:06:41;7.57;;;5.70;;
7575;SDS011;3829;50.798;4.358;2023-04-01T19:09:16;9.63;;;6.57;;
7575;SDS011;3829;50.798;4.358;2023-04-01T19:11:47;12.57;;;7.30;;
7575;SDS011;3829;50.798;4.358;2023-04-01T19:14:32;9.97;;;6.97;;
7575;SDS011;3829;50.798;4.358;2023-04-01T19:20:17;12.03;;;9.10;;
7575;SDS011;3829;50.798;4.358;2023-04-01T19:28:35;15.17;;;9.60;;
7575;SDS011;3829;50.798;4.358;2023-04-01T19:42:34;19.63;;;11.87;;
7575;SDS011;3829;50.798;4.358;2023-04-01T19:48:00;22.13;;;13.20;;
7575;SDS011;3829;50.798;4.358;2023-04-01T19:56:03;23.00;;;13.03;;
7575;SDS011;3829;50.798;4.358;2023-04-01T20:01:33;24.57;;;12.47;;
7575;SDS011;3829;50.798;4.358;2023-04-01T20:12:21;24.43;;;12.30;;
7575;SDS011;3829;50.798;4.358;2023-04-01T20:15:22;22.27;;;11.90;;
7575;SDS011;3829;50.798;4.358;2023-04-01T20:17:57;18.10;;;11.00;;
7575;SDS011;3829;50.798;4.358;2023-04-01T20:20:27;25.80;;;10.63;;
7575;SDS011;3829;50.798;4.358;2023-04-01T20:25:54;21.47;;;11.20;;
7575;SDS011;3829;50.798;4.358;2023-04-01T20:31:28;20.40;;;10.97;;
7575;SDS011;3829;50.798;4.358;2023-04-01T20:37:13;30.20;;;13.37;;
7575;SDS011;3829;50.798;4.358;2023-04-01T20:46:04;23.57;;;11.33;;
7575;SDS011;3829;50.798;4.358;2023-04-01T20:48:44;21.73;;;11.73;;
7575;SDS011;3829;50.798;4.358;2023-04-01T20:51:22;23.27;;;11.23;;
7575;SDS011;3829;50.798;4.358;2023-04-01T20:57:14;25.20;;;11.10;;
7575;SDS011;3829;50.798;4.358;2023-04-01T20:59:50;17.13;;;10.33;;
7575;SDS011;3829;50.798;4.358;2023-04-01T21:19:24;27.83;;;12.90;;
7575;SDS011;3829;50.798;4.358;2023-04-01T21:22:15;21.60;;;13.23;;
7575;SDS011;3829;50.798;4.358;2023-04-01T21:30:51;34.23;;;14.83;;
7575;SDS011;3829;50.798;4.358;2023-04-01T21:36:42;28.97;;;14.30;;
7575;SDS011;3829;50.798;4.358;2023-04-01T21:44:55;29.93;;;15.37;;
7575;SDS011;3829;50.798;4.358;2023-04-01T22:07:19;26.20;;;12.43;;
7575;SDS011;3829;50.798;4.358;2023-04-01T22:12:38;23.40;;;12.60;;
7575;SDS011;3829;50.798;4.358;2023-04-01T22:15:23;28.03;;;12.23;;
7575;SDS011;3829;50.798;4.358;2023-04-01T22:18:18;22.23;;;12.13;;
7575;SDS011;3829;50.798;4.358;2023-04-01T22:23:52;21.73;;;11.13;;
7575;SDS011;3829;50.798;4.358;2023-04-01T22:29:38;19.20;;;10.50;;
7575;SDS011;3829;50.798;4.358;2023-04-01T22:32:07;18.73;;;10.30;;
7575;SDS011;3829;50.798;4.358;2023-04-01T22:35:00;20.87;;;11.90;;
7575;SDS011;3829;50.798;4.358;2023-04-01T22:40:22;28.33;;;14.63;;
7575;SDS011;3829;50.798;4.358;2023-04-01T22:43:01;23.80;;;13.10;;
7575;SDS011;3829;50.798;4.358;2023-04-01T22:56:12;29.03;;;16.97;;
7575;SDS011;3829;50.798;4.358;2023-04-01T22:58:47;35.27;;;17.27;;
7575;SDS011;3829;50.798;4.358;2023-04-01T23:01:21;31.57;;;14.13;;
7575;SDS011;3829;50.798;4.358;2023-04-01T23:03:51;30.93;;;15.83;;
7575;SDS011;3829;50.798;4.358;2023-04-01T23:06:22;29.33;;;14.50;;
7575;SDS011;3829;50.798;4.358;2023-04-01T23:09:08;37.40;;;18.23;;
7575;SDS011;3829;50.798;4.358;2023-04-01T23:11:41;39.17;;;18.97;;
7575;SDS011;3829;50.798;4.358;2023-04-01T23:19:52;27.10;;;13.77;;
7575;SDS011;3829;50.798;4.358;2023-04-01T23:22:34;22.77;;;12.60;;
7575;SDS011;3829;50.798;4.358;2023-04-01T23:33:19;26.17;;;13.77;;
7575;SDS011;3829;50.798;4.358;2023-04-01T23:35:49;27.43;;;13.10;;
7575;SDS011;3829;50.798;4.358;2023-04-01T23:38:16;29.00;;;14.10;;
7575;SDS011;3829;50.798;4.358;2023-04-01T23:40:42;33.00;;;14.20;;
7575;SDS011;3829;50.798;4.358;2023-04-01T23:43:18;29.40;;;14.23;;
7575;SDS011;3829;50.798;4.358;2023-04-01T23:45:48;30.33;;;13.40;;
7575;SDS011;3829;50.798;4.358;2023-04-01T23:48:14;33.03;;;15.07;;
7575;SDS011;3829;50.798;4.358;2023-04-01T23:50:41;34.37;;;15.27;;
7575;SDS011;3829;50.798;4.358;2023-04-01T23:53:19;27.00;;;14.33;;
7575;SDS011;3829;50.798;4.358;2023-04-01T23:55:48;28.47;;;14.43;;
7575;SDS011;3829;50.798;4.358;2023-04-01T23:58:22;33.20;;;15.27;;
